createdAt,value
2023-01-13T00:01:29.344Z,100726.78
2023-01-13T00:03:57.817Z,100732.09
2023-01-13T00:06:26.546Z,100727.56
2023-01-13T00:08:54.539Z,100728.34
2023-01-13T00:11:23.208Z,100726.78
2023-01-13T00:13:51.124Z,100732.63
2023-01-13T00:16:19.707Z,100726.19
2023-01-13T00:18:48.513Z,100721.13
2023-01-13T00:21:24.915Z,100720.38
2023-01-13T00:23:54.214Z,100713.44
2023-01-13T00:26:25.922Z,100722.25
2023-01-13T00:28:58.761Z,100721.13
2023-01-13T00:31:28.715Z,100729.94
2023-01-13T00:33:58.648Z,100731.81
2023-01-13T00:36:27.494Z,100730.53
2023-01-13T00:38:55.328Z,100727.88
2023-01-13T00:41:25.527Z,100735.06
2023-01-13T00:43:53.560Z,100737.44
2023-01-13T00:46:23.058Z,100741.97
2023-01-13T00:48:51.699Z,100739.03
2023-01-13T00:51:21.673Z,100751.28
2023-01-13T00:53:51.729Z,100750.47
2023-01-13T00:56:40.847Z,100751.28
2023-01-13T00:59:12.946Z,100745.13
2023-01-13T01:01:41.892Z,100748.09
2023-01-13T01:04:09.540Z,100740.09
2023-01-13T01:06:37.565Z,100734.97
2023-01-13T01:09:05.983Z,100732.09
2023-01-13T01:11:34.363Z,100741.69
2023-01-13T01:14:03.866Z,100739.31
2023-01-13T01:16:33.279Z,100733.69
2023-01-13T01:19:02.013Z,100740.63
2023-01-13T01:21:30.067Z,100734.19
2023-01-13T01:24:04.201Z,100732.28
2023-01-13T01:26:33.013Z,100733.09
2023-01-13T01:29:02.331Z,100719.47
2023-01-13T01:31:32.517Z,100724.81
2023-01-13T01:34:01.566Z,100729.13
2023-01-13T01:36:30.366Z,100732.91
2023-01-13T01:39:00.014Z,100733.69
2023-01-13T01:41:32.599Z,100735.28
2023-01-13T01:44:41.760Z,100740.63
2023-01-13T01:47:18.125Z,100728.34
2023-01-13T01:49:47.899Z,100736.06
2023-01-13T01:52:26.609Z,100735.28
2023-01-13T01:55:34.954Z,100721.72
2023-01-13T01:58:15.756Z,100726.88
2023-01-13T02:00:43.594Z,100725.81
2023-01-13T02:03:11.767Z,100720.47
2023-01-13T02:05:39.593Z,100711.69
2023-01-13T02:08:11.426Z,100715.13
2023-01-13T02:10:41.505Z,100715.13
2023-01-13T02:13:12.313Z,100718.28
2023-01-13T02:16:02.999Z,100717.69
2023-01-13T02:19:00.390Z,100721.44
2023-01-13T02:22:07.433Z,100725.22
2023-01-13T02:25:05.556Z,100720.97
2023-01-13T02:27:58.145Z,100720.47
2023-01-13T02:31:28.966Z,100723.44
2023-01-13T02:34:20.302Z,100726.41
2023-01-13T02:36:51.124Z,100717.31
2023-01-13T02:39:48.769Z,100720.47
2023-01-13T02:42:53.136Z,100707.91
2023-01-13T02:45:43.196Z,100728.16
2023-01-13T02:48:14.032Z,100730.06
2023-01-13T02:51:12.315Z,100728.34
2023-01-13T02:54:06.814Z,100729.94
2023-01-13T02:56:41.198Z,100731.50
2023-01-13T02:59:10.537Z,100728.34
2023-01-13T03:01:38.495Z,100740.63
2023-01-13T03:04:51.712Z,100725.09
2023-01-13T03:07:57.105Z,100726.47
2023-01-13T03:10:49.214Z,100729.13
2023-01-13T03:14:05.678Z,100735.28
2023-01-13T03:17:11.267Z,100732.63
2023-01-13T03:20:08.799Z,100733.69
2023-01-13T03:23:30.076Z,100729.44
2023-01-13T03:26:31.137Z,100725.22
2023-01-13T03:29:13.697Z,100722.53
2023-01-13T03:32:02.956Z,100717.69
2023-01-13T03:34:39.831Z,100719.78
2023-01-13T03:37:09.537Z,100713.63
2023-01-13T03:39:43.645Z,100715.50
2023-01-13T03:42:25.268Z,100710.19
2023-01-13T03:45:06.631Z,100705.84
2023-01-13T03:47:47.000Z,100709.19
2023-01-13T03:50:20.699Z,100714.22
2023-01-13T03:53:00.737Z,100709.97
2023-01-13T03:55:38.019Z,100712.03
2023-01-13T03:58:20.423Z,100704.03
2023-01-13T04:01:18.952Z,100697.63
2023-01-13T04:04:06.550Z,100693.56
2023-01-13T04:07:12.944Z,100693.25
2023-01-13T04:10:02.730Z,100692.47
2023-01-13T04:13:00.887Z,100688.69
2023-01-13T04:15:44.138Z,100693.72
2023-01-13T04:18:27.844Z,100686.84
2023-01-13T04:20:59.413Z,100687.03
2023-01-13T04:23:28.232Z,100690.00
2023-01-13T04:25:56.626Z,100684.66
2023-01-13T04:28:25.837Z,100687.81
2023-01-13T04:30:53.756Z,100685.44
2023-01-13T04:33:21.822Z,100687.03
2023-01-13T04:35:49.526Z,100687.81
2023-01-13T04:38:20.691Z,100687.81
2023-01-13T04:40:49.194Z,100680.09
2023-01-13T04:43:17.562Z,100674.59
2023-01-13T04:45:45.268Z,100681.50
2023-01-13T04:48:13.347Z,100677.25
2023-01-13T04:50:41.854Z,100679.31
2023-01-13T04:53:09.907Z,100680.88
2023-01-13T04:55:37.430Z,100669.44
2023-01-13T04:58:08.560Z,100671.81
2023-01-13T05:00:36.719Z,100668.06
2023-01-13T05:03:05.039Z,100670.44
2023-01-13T05:05:32.868Z,100676.53
2023-01-13T05:08:00.763Z,100678.09
2023-01-13T05:10:28.764Z,100679.22
2023-01-13T05:13:15.533Z,100680.28
2023-01-13T05:16:02.692Z,100680.75
2023-01-13T05:18:31.600Z,100686.59
2023-01-13T05:20:59.204Z,100686.91
2023-01-13T05:23:46.185Z,100687.97
2023-01-13T05:26:13.853Z,100689.41
2023-01-13T05:28:41.616Z,100682.47
2023-01-13T05:31:09.154Z,100684.06
2023-01-13T05:33:36.993Z,100675.75
2023-01-13T05:36:05.854Z,100678.09
2023-01-13T05:38:33.672Z,100668.25
2023-01-13T05:41:20.095Z,100687.97
2023-01-13T05:43:47.876Z,100689.88
2023-01-13T05:46:17.788Z,100693.13
2023-01-13T05:48:46.020Z,100698.47
2023-01-13T05:51:13.924Z,100701.44
2023-01-13T05:53:42.071Z,100704.41
2023-01-13T05:56:11.260Z,100701.72
2023-01-13T05:58:39.167Z,100710.84
2023-01-13T06:01:10.807Z,100707.84
2023-01-13T06:03:38.938Z,100709.72
2023-01-13T06:06:09.078Z,100713.69
2023-01-13T06:08:39.566Z,100711.03
2023-01-13T06:11:07.879Z,100710.72
2023-01-13T06:13:35.762Z,100720.88
2023-01-13T06:16:03.529Z,100719.81
2023-01-13T06:18:31.396Z,100728.28
2023-01-13T06:20:58.968Z,100714.19
2023-01-13T06:23:27.262Z,100719.22
2023-01-13T06:26:36.247Z,100719.22
2023-01-13T06:29:04.679Z,100717.63
2023-01-13T06:31:37.155Z,100713.88
2023-01-13T06:34:11.663Z,100717.03
2023-01-13T06:36:48.968Z,100719.69
2023-01-13T06:39:22.102Z,100722.34
2023-01-13T06:42:11.092Z,100720.75
2023-01-13T06:44:39.325Z,100717.22
2023-01-13T06:47:07.313Z,100723.31
2023-01-13T06:49:35.327Z,100726.50
2023-01-13T06:52:03.229Z,100729.66
2023-01-13T06:54:31.269Z,100724.78
2023-01-13T06:56:58.908Z,100730.59
2023-01-13T06:59:27.092Z,100736.44
2023-01-13T07:01:54.864Z,100726.09
2023-01-13T07:04:22.976Z,100728.81
2023-01-13T07:06:50.595Z,100722.47
2023-01-13T07:09:18.696Z,100724.72
2023-01-13T07:11:46.834Z,100717.53
2023-01-13T07:14:33.502Z,100714.84
2023-01-13T07:17:01.326Z,100720.97
2023-01-13T07:19:29.335Z,100714.84
2023-01-13T07:21:56.985Z,100709.22
2023-01-13T07:24:25.169Z,100712.66
2023-01-13T07:26:52.979Z,100726.53
2023-01-13T07:29:21.046Z,100710.50
2023-01-13T07:31:50.075Z,100707.84
2023-01-13T07:34:18.383Z,100725.91
2023-01-13T07:36:46.081Z,100715.72
2023-01-13T07:39:14.308Z,100710.84
2023-01-13T07:42:00.622Z,100699.41
2023-01-13T07:44:28.466Z,100707.88
2023-01-13T07:46:56.248Z,100711.03
2023-01-13T07:49:24.453Z,100709.66
2023-01-13T07:51:52.010Z,100707.75
2023-01-13T07:54:25.512Z,100705.25
2023-01-13T07:56:59.280Z,100709.38
2023-01-13T07:59:27.163Z,100696.19
2023-01-13T08:01:54.953Z,100708.16
2023-01-13T08:04:23.066Z,100718.84
2023-01-13T08:07:09.699Z,100718.22
2023-01-13T08:09:37.693Z,100717.25
2023-01-13T08:12:23.961Z,100722.13
2023-01-13T08:14:54.085Z,100731.34
2023-01-13T08:17:21.574Z,100721.78
2023-01-13T08:19:49.507Z,100718.22
2023-01-13T08:22:17.186Z,100727.69
2023-01-13T08:24:45.139Z,100723.47
2023-01-13T08:27:12.849Z,100726.13
2023-01-13T08:29:41.048Z,100727.91
2023-01-13T08:32:08.725Z,100737.19
2023-01-13T08:34:37.201Z,100742.53
2023-01-13T08:37:04.769Z,100742.03
2023-01-13T08:39:32.773Z,100735.56
2023-01-13T08:42:00.433Z,100739.88
2023-01-13T08:44:31.063Z,100736.69
2023-01-13T08:46:59.933Z,100733.44
2023-01-13T08:49:28.026Z,100733.94
2023-01-13T08:51:55.787Z,100735.47
2023-01-13T08:54:24.062Z,100722.63
2023-01-13T08:56:51.980Z,100718.25
2023-01-13T08:59:20.936Z,100717.81
2023-01-13T09:01:48.641Z,100716.44
2023-01-13T09:04:24.423Z,100719.47
2023-01-13T09:06:52.152Z,100718.50
2023-01-13T09:09:21.281Z,100719.34
2023-01-13T09:12:09.950Z,100705.56
2023-01-13T09:14:40.061Z,100715.00
2023-01-13T09:17:08.553Z,100712.81
2023-01-13T09:19:37.362Z,100717.06
2023-01-13T09:22:05.236Z,100720.19
2023-01-13T09:24:33.179Z,100711.72
2023-01-13T09:27:00.722Z,100717.19
2023-01-13T09:29:28.889Z,100714.53
2023-01-13T09:31:58.271Z,100714.53
2023-01-13T09:34:44.833Z,100713.91
2023-01-13T09:37:12.552Z,100703.22
2023-01-13T09:39:40.690Z,100703.22
2023-01-13T09:42:58.967Z,100695.22
2023-01-13T09:45:43.908Z,100695.50
2023-01-13T09:48:51.973Z,100688.78
2023-01-13T09:51:41.000Z,100691.94
2023-01-13T09:54:32.120Z,100688.13
2023-01-13T09:57:01.072Z,100697.13
2023-01-13T09:59:36.412Z,100698.06
2023-01-13T10:02:29.899Z,100682.50
2023-01-13T10:05:32.318Z,100674.34
2023-01-13T10:08:24.477Z,100675.31
2023-01-13T10:11:00.231Z,100666.84
2023-01-13T10:13:31.151Z,100664.00
2023-01-13T10:16:36.811Z,100665.56
2023-01-13T10:19:39.017Z,100658.34
2023-01-13T10:22:38.942Z,100663.56
2023-01-13T10:25:45.416Z,100659.00
2023-01-13T10:28:19.461Z,100640.13
2023-01-13T10:30:48.208Z,100648.16
2023-01-13T10:33:29.990Z,100648.63
2023-01-13T10:36:23.203Z,100645.78
2023-01-13T10:38:51.956Z,100637.59
2023-01-13T10:41:27.391Z,100637.13
2023-01-13T10:44:09.373Z,100638.56
2023-01-13T10:46:55.599Z,100633.03
2023-01-13T10:49:32.745Z,100636.19
2023-01-13T10:52:02.886Z,100626.25
2023-01-13T10:54:31.284Z,100616.97
2023-01-13T10:57:20.836Z,100608.94
2023-01-13T10:59:49.284Z,100606.22
2023-01-13T11:02:25.184Z,100604.50
2023-01-13T11:04:53.932Z,100607.47
2023-01-13T11:07:30.162Z,100594.38
2023-01-13T11:10:09.553Z,100599.41
2023-01-13T11:12:53.875Z,100589.59
2023-01-13T11:15:28.806Z,100592.81
2023-01-13T11:18:05.275Z,100579.66
2023-01-13T11:20:42.530Z,100577.97
2023-01-13T11:23:22.008Z,100574.59
2023-01-13T11:25:58.004Z,100577.19
2023-01-13T11:28:47.560Z,100576.59
2023-01-13T11:31:33.973Z,100579.13
2023-01-13T11:34:32.510Z,100573.16
2023-01-13T11:37:03.221Z,100574.09
2023-01-13T11:40:17.159Z,100563.22
2023-01-13T11:42:58.428Z,100569.03
2023-01-13T11:45:41.467Z,100559.44
2023-01-13T11:48:17.882Z,100568.41
2023-01-13T11:51:14.461Z,100555.19
2023-01-13T11:54:14.594Z,100551.03
2023-01-13T11:57:55.286Z,100554.94
2023-01-13T12:00:53.948Z,100541.78
2023-01-13T12:03:36.250Z,100541.22
2023-01-13T12:06:34.622Z,100544.09
2023-01-13T12:09:11.929Z,100545.53
2023-01-13T12:12:22.452Z,100528.81
2023-01-13T12:15:22.953Z,100540.03
2023-01-13T12:18:12.889Z,100532.72
2023-01-13T12:21:15.707Z,100524.66
2023-01-13T12:24:41.593Z,100534.66
2023-01-13T12:27:52.521Z,100521.38
2023-01-13T12:30:28.754Z,100518.63
2023-01-13T12:33:13.581Z,100520.13
2023-01-13T12:35:58.209Z,100511.00
2023-01-13T12:38:42.379Z,100513.34
2023-01-13T12:41:33.574Z,100505.09
2023-01-13T12:44:17.158Z,100516.34
2023-01-13T12:46:56.860Z,100507.56
2023-01-13T12:49:35.120Z,100520.19
2023-01-13T12:52:15.681Z,100508.56
2023-01-13T12:54:44.272Z,100507.47
2023-01-13T12:57:24.977Z,100496.41
2023-01-13T13:00:04.861Z,100497.56
2023-01-13T13:02:36.831Z,100495.34
2023-01-13T13:05:23.222Z,100497.13
2023-01-13T13:08:12.783Z,100502.47
2023-01-13T13:11:32.610Z,100511.25
2023-01-13T13:14:03.793Z,100505.69
2023-01-13T13:16:31.929Z,100506.38
2023-01-13T13:19:21.283Z,100494.75
2023-01-13T13:22:14.148Z,100494.63
2023-01-13T13:25:03.536Z,100499.13
2023-01-13T13:28:08.575Z,100496.63
2023-01-13T13:30:42.740Z,100493.41
2023-01-13T13:33:53.406Z,100489.38
2023-01-13T13:37:04.853Z,100486.06
2023-01-13T13:39:52.528Z,100487.34
2023-01-13T13:42:48.349Z,100481.66
2023-01-13T13:45:43.684Z,100492.50
2023-01-13T13:48:31.122Z,100497.31
2023-01-13T13:51:21.888Z,100494.28
2023-01-13T13:53:49.838Z,100494.69
2023-01-13T13:56:23.217Z,100495.44
2023-01-13T13:58:52.376Z,100495.75
2023-01-13T14:01:43.618Z,100500.97
2023-01-13T14:04:23.069Z,100501.75
2023-01-13T14:06:56.082Z,100504.53
2023-01-13T14:09:25.907Z,100504.72
2023-01-13T14:12:03.787Z,100503.31
2023-01-13T14:14:31.356Z,100501.94
2023-01-13T14:16:59.463Z,100492.53
2023-01-13T14:19:35.235Z,100493.97
2023-01-13T14:22:06.832Z,100486.97
2023-01-13T14:24:44.802Z,100499.25
2023-01-13T14:27:19.616Z,100499.94
2023-01-13T14:29:47.690Z,100495.31
2023-01-13T14:32:20.032Z,100487.88
2023-01-13T14:34:48.034Z,100489.38
2023-01-13T14:37:31.550Z,100482.44
2023-01-13T14:39:59.410Z,100483.56
2023-01-13T14:42:29.709Z,100480.63
2023-01-13T14:44:57.659Z,100485.53
2023-01-13T14:47:34.112Z,100482.69
2023-01-13T14:50:11.048Z,100484.13
2023-01-13T14:52:57.219Z,100486.28
2023-01-13T14:55:41.421Z,100472.66
2023-01-13T14:58:28.608Z,100470.63
2023-01-13T15:01:39.595Z,100465.47
2023-01-13T15:04:31.852Z,100462.97
2023-01-13T15:07:01.320Z,100458.47
2023-01-13T15:09:41.644Z,100462.69
2023-01-13T15:12:35.729Z,100462.94
2023-01-13T15:15:19.891Z,100459.41
2023-01-13T15:17:47.574Z,100455.53
2023-01-13T15:20:19.250Z,100457.03
2023-01-13T15:22:48.073Z,100454.06
2023-01-13T15:25:16.306Z,100455.66
2023-01-13T15:27:46.196Z,100446.25
2023-01-13T15:30:26.350Z,100446.09
2023-01-13T15:32:58.415Z,100456.22
2023-01-13T15:35:29.709Z,100460.19
2023-01-13T15:37:58.167Z,100456.91
2023-01-13T15:40:32.380Z,100464.34
2023-01-13T15:43:18.580Z,100453.34
2023-01-13T15:46:05.676Z,100449.91
2023-01-13T15:48:33.696Z,100462.22
2023-01-13T15:51:04.820Z,100453.25
2023-01-13T15:53:36.890Z,100463.81
2023-01-13T15:56:15.391Z,100453.75
2023-01-13T15:58:43.019Z,100452.03
2023-01-13T16:01:13.197Z,100462.72
2023-01-13T16:03:40.767Z,100451.41
2023-01-13T16:06:18.658Z,100450.16
2023-01-13T16:08:46.608Z,100457.72
2023-01-13T16:11:14.511Z,100455.06
2023-01-13T16:13:42.116Z,100460.72
2023-01-13T16:16:27.679Z,100459.28
2023-01-13T16:18:55.652Z,100458.06
2023-01-13T16:21:23.890Z,100450.84
2023-01-13T16:23:52.096Z,100460.25
2023-01-13T16:26:36.207Z,100458.56
2023-01-13T16:29:04.623Z,100453.03
2023-01-13T16:31:34.400Z,100444.84
2023-01-13T16:34:03.294Z,100450.50
2023-01-13T16:36:35.440Z,100452.09
2023-01-13T16:39:04.789Z,100443.00
2023-01-13T16:41:34.529Z,100439.06
2023-01-13T16:44:06.152Z,100433.41
2023-01-13T16:46:34.251Z,100436.53
2023-01-13T16:49:06.851Z,100431.66
2023-01-13T16:51:34.952Z,100425.22
2023-01-13T16:54:05.306Z,100432.47
2023-01-13T16:56:36.445Z,100439.38
2023-01-13T16:59:14.191Z,100434.97
2023-01-13T17:01:44.993Z,100429.94
2023-01-13T17:04:18.449Z,100432.63
2023-01-13T17:07:03.771Z,100427.28
2023-01-13T17:09:31.631Z,100434.03
2023-01-13T17:12:00.347Z,100424.59
2023-01-13T17:14:27.890Z,100425.22
2023-01-13T17:16:58.153Z,100419.44
2023-01-13T17:19:26.147Z,100420.81
2023-01-13T17:21:54.042Z,100416.28
2023-01-13T17:24:21.866Z,100407.78
2023-01-13T17:26:51.434Z,100411.56
2023-01-13T17:29:25.845Z,100399.94
2023-01-13T17:31:54.108Z,100396.66
2023-01-13T17:34:22.485Z,100404.19
2023-01-13T17:36:50.644Z,100403.44
2023-01-13T17:39:25.245Z,100403.09
2023-01-13T17:41:55.969Z,100396.97
2023-01-13T17:44:23.743Z,100397.59
2023-01-13T17:46:51.846Z,100397.13
2023-01-13T17:49:21.869Z,100403.25
2023-01-13T17:51:51.500Z,100398.41
2023-01-13T17:54:19.962Z,100398.09
2023-01-13T17:56:48.232Z,100401.06
2023-01-13T17:59:19.431Z,100404.97
2023-01-13T18:01:47.357Z,100398.09
2023-01-13T18:04:24.505Z,100404.97
2023-01-13T18:06:53.390Z,100409.38
2023-01-13T18:09:21.799Z,100408.28
2023-01-13T18:11:50.424Z,100410.31
2023-01-13T18:14:19.037Z,100415.66
2023-01-13T18:16:46.909Z,100411.91
2023-01-13T18:19:35.083Z,100413.44
2023-01-13T18:22:21.668Z,100404.34
2023-01-13T18:25:07.856Z,100399.31
2023-01-13T18:27:38.884Z,100396.34
2023-01-13T18:30:07.349Z,100388.94
2023-01-13T18:32:35.853Z,100391.16
2023-01-13T18:35:10.308Z,100390.38
2023-01-13T18:37:41.963Z,100390.22
2023-01-13T18:40:13.454Z,100392.41
2023-01-13T18:42:59.113Z,100390.84
2023-01-13T18:45:31.156Z,100389.28
2023-01-13T18:48:03.601Z,100389.91
2023-01-13T18:50:34.624Z,100381.41
2023-01-13T18:53:02.606Z,100383.63
2023-01-13T18:55:30.221Z,100385.22
2023-01-13T18:57:58.971Z,100383.63
2023-01-13T19:00:27.469Z,100390.53
2023-01-13T19:05:35.066Z,100396.50
2023-01-13T19:08:03.791Z,100396.97
2023-01-13T19:10:32.718Z,100395.41
2023-01-13T19:13:01.710Z,100398.06
2023-01-13T19:15:29.937Z,100404.84
2023-01-13T19:17:57.914Z,100401.84
2023-01-13T19:20:25.505Z,100410.94
2023-01-13T19:22:56.481Z,100419.13
2023-01-13T19:25:24.784Z,100413.94
2023-01-13T19:27:52.715Z,100421.47
2023-01-13T19:30:20.496Z,100427.91
2023-01-13T19:32:48.345Z,100423.97
2023-01-13T19:35:18.185Z,100429.16
2023-01-13T19:37:46.219Z,100431.16
2023-01-13T19:40:13.937Z,100430.66
2023-01-13T19:43:03.039Z,100428.63
2023-01-13T19:45:33.877Z,100438.53
2023-01-13T19:48:04.597Z,100447.94
2023-01-13T19:50:36.753Z,100448.88
2023-01-13T19:53:05.622Z,100457.50
2023-01-13T19:55:33.583Z,100455.91
2023-01-13T19:58:02.030Z,100450.25
2023-01-13T20:00:29.716Z,100459.38
2023-01-13T20:03:03.212Z,100462.22
2023-01-13T20:05:30.977Z,100462.69
2023-01-13T20:07:58.905Z,100467.41
2023-01-13T20:10:26.544Z,100461.59
2023-01-13T20:12:54.679Z,100460.31
2023-01-13T20:15:22.325Z,100465.81
2023-01-13T20:17:50.611Z,100467.41
2023-01-13T20:20:20.570Z,100463.63
2023-01-13T20:22:49.737Z,100458.28
2023-01-13T20:25:18.753Z,100468.03
2023-01-13T20:27:47.411Z,100468.50
2023-01-13T20:30:15.800Z,100460.63
2023-01-13T20:32:44.761Z,100457.03
2023-01-13T20:35:12.418Z,100455.91
2023-01-13T20:37:42.267Z,100458.09
2023-01-13T20:40:14.023Z,100457.63
2023-01-13T20:42:45.402Z,100451.66
2023-01-13T20:45:18.116Z,100450.84
2023-01-13T20:47:47.385Z,100458.84
2023-01-13T20:50:16.733Z,100463.25
2023-01-13T20:52:46.025Z,100459.34
2023-01-13T20:55:15.133Z,100465.44
2023-01-13T20:57:43.480Z,100459.34
2023-01-13T21:00:12.026Z,100462.91
2023-01-13T21:02:41.936Z,100458.34
2023-01-13T21:05:10.239Z,100458.53
2023-01-13T21:07:38.445Z,100465.44
2023-01-13T21:10:06.702Z,100461.66
2023-01-13T21:12:53.431Z,100456.84
2023-01-13T21:15:22.785Z,100456.34
2023-01-13T21:18:10.596Z,100444.09
2023-01-13T21:20:39.553Z,100447.72
2023-01-13T21:23:08.559Z,100450.38
2023-01-13T21:25:39.559Z,100447.72
2023-01-13T21:28:11.547Z,100442.38
2023-01-13T21:30:40.077Z,100438.94
2023-01-13T21:33:11.180Z,100443.97
2023-01-13T21:35:39.692Z,100438.31
2023-01-13T21:38:07.881Z,100445.06
2023-01-13T21:40:36.040Z,100451.63
2023-01-13T21:43:22.789Z,100446.44
2023-01-13T21:46:09.232Z,100456.13
2023-01-13T21:48:37.320Z,100463.19
2023-01-13T21:51:05.158Z,100453.91
2023-01-13T21:53:35.799Z,100462.22
2023-01-13T21:56:19.721Z,100467.06
2023-01-13T21:58:47.702Z,100473.81
2023-01-13T22:01:29.364Z,100469.88
2023-01-13T22:04:23.762Z,100468.31
2023-01-13T22:07:19.217Z,100469.41
2023-01-13T22:09:49.523Z,100471.59
2023-01-13T22:12:22.732Z,100471.28
2023-01-13T22:14:56.233Z,100469.88
2023-01-13T22:17:31.235Z,100472.53
2023-01-13T22:20:01.344Z,100462.66
2023-01-13T22:22:30.027Z,100463.94
2023-01-13T22:24:58.246Z,100460.19
2023-01-13T22:27:29.085Z,100462.84
2023-01-13T22:29:59.066Z,100457.53
2023-01-13T22:32:27.716Z,100461.28
2023-01-13T22:34:57.957Z,100461.56
2023-01-13T22:37:27.111Z,100474.44
2023-01-13T22:39:57.040Z,100464.84
2023-01-13T22:42:28.189Z,100461.41
2023-01-13T22:44:57.471Z,100459.34
2023-01-13T22:47:27.871Z,100466.09
2023-01-13T22:49:58.262Z,100457.91
2023-01-13T22:52:28.533Z,100458.41
2023-01-13T22:54:57.424Z,100460.44
2023-01-13T22:57:25.125Z,100463.13
2023-01-13T22:59:53.354Z,100454.47
2023-01-13T23:02:20.939Z,100450.88
2023-01-13T23:04:49.281Z,100448.22
2023-01-13T23:07:17.069Z,100443.94
2023-01-13T23:09:46.301Z,100448.69
2023-01-13T23:12:14.153Z,100442.75
2023-01-13T23:14:42.123Z,100451.81
2023-01-13T23:17:10.232Z,100451.66
2023-01-13T23:19:38.189Z,100441.41
2023-01-13T23:22:06.437Z,100440.47
2023-01-13T23:24:34.405Z,100439.03
2023-01-13T23:27:02.056Z,100439.16
2023-01-13T23:29:29.963Z,100431.28
2023-01-13T23:31:57.845Z,100434.25
2023-01-13T23:34:25.853Z,100426.38
2023-01-13T23:36:53.537Z,100427.03
2023-01-13T23:39:21.594Z,100417.44
2023-01-13T23:41:49.161Z,100422.78
2023-01-13T23:44:17.086Z,100416.66
2023-01-13T23:46:44.562Z,100412.72
2023-01-13T23:49:12.518Z,100411.63
2023-01-13T23:51:40.248Z,100421.50
2023-01-13T23:54:08.258Z,100410.06
2023-01-13T23:56:39.425Z,100421.31
2023-01-13T23:59:08.065Z,100408.78
